Time;durP1;ratioP1;P1;durP2;ratioP2;P2;SDS_P1;SDS_P2;PMS_P1;PMS_P2;Temp;Humidity;BMP_temperature;BMP_pressure;BME280_temperature;BME280_humidity;BME280_pressure;Samples;Min_cycle;Max_cycle;Signal;HPM_P1;HPM_P2
2022/07/13 00:00:58;;;;;;;0.30;0.30;;;17.60;99.90;;;;;;4966317;28;20440;-62
2022/07/13 00:03:25;;;;;;;0.40;0.40;;;17.60;99.90;;;;;;4966397;28;20443;-62
2022/07/13 00:05:55;;;;;;;0.40;0.40;;;17.50;99.90;;;;;;4965974;28;20523;-62
2022/07/13 00:08:23;;;;;;;0.40;0.40;;;17.50;99.90;;;;;;4965580;28;21169;-62
2022/07/13 00:10:50;;;;;;;0.38;0.38;;;17.40;99.90;;;;;;4964472;28;20459;-62
2022/07/13 00:13:16;;;;;;;0.50;0.50;;;17.40;99.90;;;;;;4965396;28;20448;-61
2022/07/13 00:15:43;;;;;;;0.43;0.43;;;17.40;99.90;;;;;;4966752;28;20937;-61
2022/07/13 00:18:10;;;;;;;0.35;0.35;;;17.40;99.90;;;;;;4968492;28;20432;-61
2022/07/13 00:20:37;;;;;;;0.38;0.38;;;17.40;99.90;;;;;;4964682;28;20440;-62
2022/07/13 00:23:06;;;;;;;0.55;0.55;;;17.40;99.90;;;;;;4966387;28;20540;-62
2022/07/13 00:25:35;;;;;;;0.47;0.47;;;17.30;99.90;;;;;;4963286;28;20436;-62
2022/07/13 00:28:02;;;;;;;0.30;0.30;;;17.30;99.90;;;;;;4958516;28;20436;-62
2022/07/13 00:30:30;;;;;;;0.40;0.40;;;17.40;99.90;;;;;;4957920;28;20464;-62
2022/07/13 00:32:56;;;;;;;0.30;0.30;;;17.40;99.90;;;;;;4963633;28;20438;-62
2022/07/13 00:35:24;;;;;;;0.30;0.30;;;17.40;99.90;;;;;;4959310;28;20497;-62
2022/07/13 00:37:51;;;;;;;0.50;0.50;;;17.40;99.90;;;;;;4966753;28;20434;-62
2022/07/13 00:40:18;;;;;;;0.50;0.50;;;17.40;99.90;;;;;;4964085;28;20449;-62
2022/07/13 00:42:45;;;;;;;0.30;0.30;;;17.40;99.90;;;;;;4958603;28;20428;-62
2022/07/13 00:45:11;;;;;;;0.40;0.40;;;17.40;99.90;;;;;;4967350;28;20442;-62
2022/07/13 00:47:41;;;;;;;0.40;0.40;;;17.40;99.90;;;;;;4967224;28;20444;-62
2022/07/13 00:50:09;;;;;;;0.40;0.40;;;17.40;99.90;;;;;;4958037;28;20531;-62
2022/07/13 00:52:37;;;;;;;0.50;0.40;;;17.40;99.90;;;;;;4963195;28;20452;-62
2022/07/13 00:55:07;;;;;;;0.30;0.30;;;17.40;99.90;;;;;;4964886;28;20858;-62
2022/07/13 00:57:35;;;;;;;0.40;0.40;;;17.40;99.90;;;;;;4954340;28;20511;-62
2022/07/13 01:00:08;;;;;;;0.40;0.40;;;17.40;99.90;;;;;;4955466;28;20440;-61
2022/07/13 01:02:39;;;;;;;0.50;0.50;;;17.40;99.90;;;;;;4962193;28;20446;-62
2022/07/13 01:05:08;;;;;;;0.65;0.65;;;17.30;99.90;;;;;;4960258;28;20439;-62
2022/07/13 01:07:35;;;;;;;0.30;0.30;;;17.30;99.90;;;;;;4956526;28;20448;-62
2022/07/13 01:10:06;;;;;;;0.50;0.50;;;17.30;99.90;;;;;;4958163;28;20929;-62
2022/07/13 01:12:34;;;;;;;0.40;0.40;;;17.40;99.90;;;;;;4963782;28;20432;-62
2022/07/13 01:15:02;;;;;;;0.40;0.40;;;17.40;99.90;;;;;;4961152;28;20447;-62
2022/07/13 01:17:30;;;;;;;0.30;0.30;;;17.40;99.90;;;;;;4963851;28;20454;-62
2022/07/13 01:20:01;;;;;;;0.30;0.30;;;17.40;99.90;;;;;;4976247;28;20524;-62
2022/07/13 01:22:50;;;;;;;0.30;0.30;;;17.30;99.90;;;;;;4955228;28;20454;-62
2022/07/13 01:25:18;;;;;;;0.40;0.40;;;17.30;99.90;;;;;;4955119;28;20489;-62
2022/07/13 01:27:47;;;;;;;0.40;0.40;;;17.30;99.90;;;;;;4959966;28;20454;-62
2022/07/13 01:30:15;;;;;;;0.47;0.47;;;17.20;99.90;;;;;;4949635;28;20441;-62
2022/07/13 01:32:42;;;;;;;1.13;0.52;;;17.20;99.90;;;;;;4958489;28;20442;-62
2022/07/13 01:35:09;;;;;;;0.30;0.30;;;17.20;99.90;;;;;;4962944;28;20428;-62
2022/07/13 01:37:40;;;;;;;0.40;0.40;;;17.20;99.90;;;;;;4963802;28;20436;-62
2022/07/13 01:40:13;;;;;;;0.40;0.40;;;17.20;99.90;;;;;;4966616;28;20969;-62
2022/07/13 01:42:46;;;;;;;0.38;0.38;;;17.20;99.90;;;;;;4956913;28;20440;-62
2022/07/13 01:45:17;;;;;;;0.40;0.40;;;17.20;99.90;;;;;;4963384;28;20523;-62
2022/07/13 01:47:48;;;;;;;0.30;0.30;;;17.20;99.90;;;;;;4965047;28;20436;-62
2022/07/13 01:50:16;;;;;;;0.20;0.20;;;17.20;99.90;;;;;;4967248;28;20440;-62
2022/07/13 01:52:44;;;;;;;0.50;0.30;;;17.20;99.90;;;;;;4959409;28;20432;-62
2022/07/13 01:55:13;;;;;;;0.35;0.35;;;17.20;99.90;;;;;;4957138;28;20525;-62
2022/07/13 01:57:40;;;;;;;0.50;0.50;;;17.20;99.90;;;;;;4965560;28;20428;-62
2022/07/13 02:00:12;;;;;;;0.25;0.25;;;17.20;99.90;;;;;;4962527;28;20446;-62
2022/07/13 02:02:39;;;;;;;0.38;0.38;;;17.20;99.90;;;;;;4965151;28;20799;-62
2022/07/13 02:05:06;;;;;;;0.50;0.50;;;17.20;99.90;;;;;;4963391;28;20444;-62
2022/07/13 02:07:33;;;;;;;0.57;0.57;;;17.20;99.90;;;;;;4963818;28;21603;-62
2022/07/13 02:09:59;;;;;;;0.52;0.52;;;17.20;99.90;;;;;;4965782;28;20493;-62
2022/07/13 02:12:26;;;;;;;0.80;0.45;;;17.10;99.90;;;;;;4961955;28;20444;-62
2022/07/13 02:14:53;;;;;;;0.40;0.40;;;17.10;99.90;;;;;;4961942;28;20436;-62
2022/07/13 02:17:19;;;;;;;0.40;0.40;;;17.00;99.90;;;;;;4969529;28;20435;-62
2022/07/13 02:19:46;;;;;;;0.30;0.30;;;16.90;99.90;;;;;;4972249;28;20446;-62
2022/07/13 02:22:13;;;;;;;0.50;0.50;;;16.90;99.90;;;;;;4965600;28;20446;-62
2022/07/13 02:24:40;;;;;;;0.30;0.30;;;16.80;99.90;;;;;;4965180;28;20450;-62
2022/07/13 02:27:07;;;;;;;0.50;0.50;;;16.70;99.90;;;;;;4960315;28;20889;-62
2022/07/13 02:29:33;;;;;;;0.40;0.40;;;16.70;99.90;;;;;;4965311;28;20440;-62
2022/07/13 02:32:03;;;;;;;0.60;0.43;;;16.70;99.90;;;;;;4961537;28;20827;-62
2022/07/13 02:34:30;;;;;;;0.50;0.50;;;16.60;99.90;;;;;;4971704;28;20432;-62
2022/07/13 02:36:57;;;;;;;0.40;0.40;;;16.60;99.90;;;;;;4961984;28;20972;-61
2022/07/13 02:39:24;;;;;;;0.50;0.50;;;16.60;99.90;;;;;;4966125;28;20436;-62
2022/07/13 02:41:50;;;;;;;0.60;0.60;;;16.60;99.90;;;;;;4962888;28;20437;-62
2022/07/13 02:44:17;;;;;;;0.45;0.45;;;16.60;99.90;;;;;;4962459;28;20507;-62
2022/07/13 02:46:44;;;;;;;0.50;0.50;;;16.60;99.90;;;;;;4961798;28;20440;-61
2022/07/13 02:49:11;;;;;;;0.38;0.38;;;16.50;99.90;;;;;;4964675;28;20457;-62
2022/07/13 02:51:37;;;;;;;0.52;0.52;;;16.50;99.90;;;;;;4966159;28;20470;-62
2022/07/13 02:54:04;;;;;;;0.40;0.40;;;16.50;99.90;;;;;;4966053;28;20439;-61
2022/07/13 02:56:31;;;;;;;0.35;0.35;;;16.40;99.90;;;;;;4964033;28;20436;-60
2022/07/13 02:58:58;;;;;;;0.40;0.40;;;16.40;99.90;;;;;;4956141;28;20445;-60
2022/07/13 03:01:25;;;;;;;0.32;0.32;;;16.50;99.90;;;;;;4957458;28;20444;-61
2022/07/13 03:03:52;;;;;;;0.40;0.40;;;16.50;99.90;;;;;;4962858;28;20523;-61
2022/07/13 03:06:21;;;;;;;0.40;0.40;;;16.40;99.90;;;;;;4963616;28;20436;-61
2022/07/13 03:08:48;;;;;;;0.50;0.50;;;16.40;99.90;;;;;;4956715;28;20474;-61
2022/07/13 03:11:15;;;;;;;0.43;0.43;;;16.30;99.90;;;;;;4963541;28;20923;-61
2022/07/13 03:13:43;;;;;;;0.50;0.50;;;16.30;99.90;;;;;;4964805;28;20440;-64
2022/07/13 03:16:13;;;;;;;0.50;0.50;;;16.20;99.90;;;;;;4962660;28;20519;-61
2022/07/13 03:18:40;;;;;;;0.45;0.45;;;16.20;99.90;;;;;;4966253;28;20432;-61
2022/07/13 03:21:08;;;;;;;0.50;0.50;;;16.20;99.90;;;;;;4950225;28;20517;-61
2022/07/13 03:23:36;;;;;;;0.50;0.50;;;16.10;99.90;;;;;;4964865;28;20442;-61
2022/07/13 03:26:05;;;;;;;0.40;0.40;;;16.10;99.90;;;;;;4966758;28;20440;-61
2022/07/13 03:28:32;;;;;;;0.50;0.50;;;16.20;99.90;;;;;;4961006;28;20534;-61
2022/07/13 03:30:59;;;;;;;0.50;0.50;;;16.30;99.90;;;;;;4958707;28;20529;-61
2022/07/13 03:33:26;;;;;;;0.43;0.43;;;16.30;99.90;;;;;;4964367;28;20439;-61
2022/07/13 03:35:53;;;;;;;0.45;0.45;;;16.30;99.90;;;;;;4961270;28;20550;-61
2022/07/13 03:38:19;;;;;;;0.47;0.47;;;16.40;99.90;;;;;;4959234;28;20476;-61
2022/07/13 03:40:48;;;;;;;0.40;0.40;;;16.40;99.90;;;;;;4966899;28;20949;-61
2022/07/13 03:43:15;;;;;;;0.30;0.30;;;16.40;99.90;;;;;;4959507;28;20444;-61
2022/07/13 03:45:42;;;;;;;0.45;0.45;;;16.40;99.90;;;;;;4962894;28;20454;-61
2022/07/13 03:48:09;;;;;;;0.50;0.50;;;16.40;99.90;;;;;;4963123;28;20989;-61
2022/07/13 03:50:36;;;;;;;0.70;0.50;;;16.40;99.90;;;;;;4960163;28;20448;-62
2022/07/13 03:53:03;;;;;;;0.45;0.45;;;16.40;99.90;;;;;;4950730;28;20506;-61
2022/07/13 03:55:30;;;;;;;0.32;0.32;;;16.50;99.90;;;;;;4967634;28;20630;-61
2022/07/13 03:57:56;;;;;;;0.40;0.40;;;16.60;99.90;;;;;;4966678;28;20443;-61
2022/07/13 04:00:23;;;;;;;0.47;0.47;;;16.60;99.90;;;;;;4966626;28;20435;-61
2022/07/13 04:02:50;;;;;;;0.50;0.47;;;16.70;99.90;;;;;;4964323;28;20504;-61
2022/07/13 04:05:18;;;;;;;0.50;0.50;;;16.80;99.90;;;;;;4964062;28;20460;-61
2022/07/13 04:07:45;;;;;;;0.60;0.52;;;16.80;99.90;;;;;;4965482;28;20490;-61
2022/07/13 04:10:12;;;;;;;0.40;0.40;;;16.90;99.90;;;;;;4967185;28;20435;-61
2022/07/13 04:12:42;;;;;;;0.50;0.50;;;17.00;99.90;;;;;;4957871;28;20436;-61
2022/07/13 04:15:10;;;;;;;0.55;0.55;;;17.00;99.90;;;;;;5009576;28;20431;-62
2022/07/13 04:17:38;;;;;;;0.63;0.63;;;17.00;99.90;;;;;;4964009;28;20845;-61
2022/07/13 04:20:05;;;;;;;0.40;0.40;;;17.10;99.90;;;;;;4965769;28;20532;-61
2022/07/13 04:22:32;;;;;;;0.50;0.47;;;17.10;99.90;;;;;;4965762;28;20442;-61
2022/07/13 04:25:02;;;;;;;0.50;0.50;;;17.20;99.90;;;;;;4961246;28;20455;-61
2022/07/13 04:27:29;;;;;;;0.65;0.65;;;17.30;99.90;;;;;;4965754;28;20443;-61
2022/07/13 04:29:59;;;;;;;0.60;0.60;;;17.30;99.90;;;;;;4964008;28;20439;-61
2022/07/13 04:32:25;;;;;;;0.30;0.30;;;17.40;99.90;;;;;;4956217;28;20443;-61
2022/07/13 04:34:52;;;;;;;0.60;0.60;;;17.50;99.90;;;;;;4963410;28;20444;-61
2022/07/13 04:37:19;;;;;;;0.82;0.50;;;17.50;99.90;;;;;;4962207;28;20921;-61
2022/07/13 04:39:46;;;;;;;0.30;0.30;;;17.60;99.90;;;;;;4956500;28;20434;-61
2022/07/13 04:42:12;;;;;;;0.43;0.43;;;17.70;99.90;;;;;;4966836;28;20442;-61
2022/07/13 04:44:39;;;;;;;0.45;0.45;;;17.80;99.90;;;;;;4963931;28;20527;-61
2022/07/13 04:47:06;;;;;;;0.60;0.60;;;17.80;99.90;;;;;;4966830;28;20440;-61
2022/07/13 04:49:33;;;;;;;0.55;0.55;;;17.90;99.90;;;;;;4965433;28;20525;-61
2022/07/13 04:51:59;;;;;;;0.47;0.47;;;18.00;99.90;;;;;;4976701;28;20456;-61
2022/07/13 04:54:26;;;;;;;0.60;0.60;;;18.00;99.90;;;;;;4963504;28;20434;-62
2022/07/13 04:56:53;;;;;;;0.50;0.50;;;18.10;99.90;;;;;;4966805;28;20445;-61
2022/07/13 04:59:20;;;;;;;0.60;0.60;;;18.20;99.90;;;;;;4960354;28;20533;-61
2022/07/13 05:01:47;;;;;;;0.50;0.50;;;18.30;99.90;;;;;;4955220;28;20445;-61
2022/07/13 05:04:13;;;;;;;0.50;0.50;;;18.40;99.90;;;;;;4962193;28;20472;-61
2022/07/13 05:06:40;;;;;;;0.40;0.40;;;18.50;99.90;;;;;;4959763;28;20453;-61
2022/07/13 05:09:10;;;;;;;0.60;0.60;;;18.60;99.90;;;;;;4963052;28;20494;-61
2022/07/13 05:11:39;;;;;;;0.50;0.50;;;18.60;99.90;;;;;;4955909;28;20438;-62
2022/07/13 05:14:06;;;;;;;0.50;0.50;;;18.80;99.90;;;;;;4957064;28;21194;-62
2022/07/13 05:16:33;;;;;;;0.60;0.60;;;18.90;99.90;;;;;;4944150;28;20444;-62
2022/07/13 05:19:02;;;;;;;0.40;0.40;;;18.90;99.90;;;;;;4998033;28;20428;-62
2022/07/13 05:21:31;;;;;;;0.43;0.43;;;19.00;99.90;;;;;;4951170;28;20529;-62
2022/07/13 05:23:58;;;;;;;0.60;0.60;;;19.00;99.90;;;;;;5008987;28;20442;-61
2022/07/13 05:26:24;;;;;;;0.50;0.50;;;19.00;99.90;;;;;;4939971;28;20431;-62
2022/07/13 05:28:51;;;;;;;0.60;0.60;;;19.00;99.90;;;;;;4950619;28;20444;-62
2022/07/13 05:31:18;;;;;;;0.43;0.43;;;19.00;99.90;;;;;;4951709;28;20442;-62
2022/07/13 05:33:45;;;;;;;0.40;0.40;;;19.00;99.90;;;;;;4951423;28;20442;-62
2022/07/13 05:36:12;;;;;;;0.50;0.50;;;19.10;99.90;;;;;;4952578;28;20462;-62
2022/07/13 05:38:39;;;;;;;0.40;0.40;;;19.10;99.90;;;;;;4954474;28;20443;-62
2022/07/13 05:41:06;;;;;;;0.50;0.50;;;19.30;99.90;;;;;;4953201;28;20434;-62
2022/07/13 05:43:40;;;;;;;0.40;0.40;;;19.40;99.90;;;;;;4954022;28;20439;-62
2022/07/13 05:46:08;;;;;;;0.40;0.40;;;19.60;99.90;;;;;;4955767;28;20438;-62
2022/07/13 05:48:35;;;;;;;0.50;0.50;;;19.80;99.90;;;;;;4951033;28;20448;-62
2022/07/13 05:51:03;;;;;;;0.50;0.50;;;20.00;99.90;;;;;;4949709;28;20442;-61
2022/07/13 05:53:53;;;;;;;0.63;0.63;;;20.10;99.90;;;;;;4956146;28;20438;-61
2022/07/13 05:56:19;;;;;;;0.50;0.50;;;20.10;99.90;;;;;;4964343;28;20432;-62
2022/07/13 05:58:46;;;;;;;0.43;0.43;;;20.30;99.90;;;;;;4960102;28;20436;-62
2022/07/13 06:01:13;;;;;;;0.45;0.45;;;20.70;99.90;;;;;;4961043;28;20445;-62
2022/07/13 06:03:40;;;;;;;0.50;0.50;;;21.00;99.90;;;;;;4953298;28;20471;-62
2022/07/13 06:06:07;;;;;;;0.40;0.40;;;21.00;99.90;;;;;;4958028;28;20444;-62
2022/07/13 06:08:34;;;;;;;0.30;0.30;;;21.30;99.90;;;;;;4956926;28;20440;-62
2022/07/13 06:11:01;;;;;;;0.40;0.40;;;21.40;99.90;;;;;;4962736;28;20480;-62
2022/07/13 06:13:31;;;;;;;0.60;0.60;;;21.40;99.90;;;;;;4953827;28;20446;-62
2022/07/13 06:15:59;;;;;;;0.50;0.50;;;21.40;99.90;;;;;;4962295;28;20523;-61
2022/07/13 06:18:26;;;;;;;0.57;0.57;;;21.40;99.90;;;;;;4963693;28;20915;-62
2022/07/13 06:20:53;;;;;;;0.60;0.60;;;21.60;99.90;;;;;;4959134;28;20981;-62
2022/07/13 06:23:21;;;;;;;0.40;0.40;;;21.60;99.90;;;;;;4961556;28;20822;-62
2022/07/13 06:25:48;;;;;;;0.40;0.40;;;21.50;99.90;;;;;;4957577;28;21161;-62
2022/07/13 06:28:15;;;;;;;0.32;0.32;;;21.70;99.90;;;;;;4964993;28;20439;-63
2022/07/13 06:30:42;;;;;;;0.50;0.50;;;21.90;99.90;;;;;;4958744;28;20444;-62
2022/07/13 06:33:09;;;;;;;0.50;0.50;;;22.10;99.90;;;;;;4957550;28;20509;-62
2022/07/13 06:35:36;;;;;;;0.40;0.40;;;22.30;99.90;;;;;;4953220;28;20432;-62
2022/07/13 06:38:03;;;;;;;0.30;0.30;;;22.40;99.90;;;;;;4952202;28;20434;-62
2022/07/13 06:40:30;;;;;;;0.43;0.43;;;22.60;99.90;;;;;;4949667;28;20435;-62
2022/07/13 06:42:56;;;;;;;0.38;0.38;;;22.80;99.90;;;;;;4949978;28;20523;-60
2022/07/13 06:45:25;;;;;;;0.30;0.30;;;22.90;99.90;;;;;;4970085;28;20520;-59
2022/07/13 06:47:54;;;;;;;0.40;0.40;;;23.00;99.90;;;;;;4955045;28;21137;-63
2022/07/13 06:50:21;;;;;;;0.47;0.47;;;23.10;99.90;;;;;;4956243;28;20797;-61
2022/07/13 06:52:48;;;;;;;0.40;0.40;;;23.30;99.90;;;;;;4948993;28;20449;-61
2022/07/13 06:55:15;;;;;;;0.70;0.40;;;23.20;99.90;;;;;;4945619;28;20949;-60
2022/07/13 06:57:42;;;;;;;0.40;0.40;;;23.50;99.90;;;;;;4957935;28;20535;-61
2022/07/13 07:00:09;;;;;;;0.30;0.30;;;23.60;99.90;;;;;;4952127;28;20440;-61
2022/07/13 07:02:36;;;;;;;0.30;0.30;;;23.90;99.90;;;;;;4960595;28;20436;-61
2022/07/13 07:05:09;;;;;;;0.32;0.32;;;24.30;99.90;;;;;;4956197;28;20448;-61
2022/07/13 07:07:40;;;;;;;0.40;0.40;;;24.80;99.90;;;;;;4961182;28;20436;-61
2022/07/13 07:10:10;;;;;;;0.38;0.38;;;25.20;99.90;;;;;;4964012;28;20435;-61
2022/07/13 07:12:38;;;;;;;0.40;0.40;;;25.90;99.90;;;;;;4960625;28;20547;-61
2022/07/13 07:15:07;;;;;;;0.40;0.40;;;26.50;99.90;;;;;;4955282;28;20458;-60
2022/07/13 07:17:42;;;;;;;0.38;0.38;;;26.60;99.90;;;;;;4959362;28;20912;-61
2022/07/13 07:20:09;;;;;;;0.30;0.30;;;26.20;99.90;;;;;;4956101;28;20561;-60
2022/07/13 07:22:36;;;;;;;0.37;0.37;;;26.70;99.90;;;;;;4957684;28;20483;-60
2022/07/13 07:25:03;;;;;;;0.30;0.30;;;27.10;99.90;;;;;;4961151;28;20438;-60
2022/07/13 07:27:29;;;;;;;0.50;0.50;;;28.10;99.90;;;;;;4953716;28;20448;-60
2022/07/13 07:29:58;;;;;;;0.38;0.38;;;28.70;99.90;;;;;;4960298;28;20440;-60
2022/07/13 07:32:26;;;;;;;0.40;0.40;;;29.70;99.90;;;;;;4952643;28;20500;-60
2022/07/13 07:34:53;;;;;;;0.40;0.40;;;30.30;99.90;;;;;;4956422;28;20433;-59
2022/07/13 07:37:21;;;;;;;0.40;0.40;;;31.00;99.90;;;;;;4960579;28;20437;-60
2022/07/13 07:39:48;;;;;;;0.40;0.40;;;31.30;98.80;;;;;;4952987;28;20436;-59
2022/07/13 07:42:15;;;;;;;0.30;0.30;;;31.20;97.70;;;;;;4947744;28;20445;-60
2022/07/13 07:44:42;;;;;;;0.30;0.30;;;30.20;98.00;;;;;;4965417;28;20510;-62
2022/07/13 07:47:09;;;;;;;0.40;0.40;;;29.70;98.90;;;;;;4958753;28;20452;-62
2022/07/13 07:49:35;;;;;;;0.57;0.57;;;29.90;98.30;;;;;;4952316;28;20782;-62
2022/07/13 07:52:07;;;;;;;0.50;0.50;;;30.90;99.10;;;;;;4956133;28;20455;-62
2022/07/13 07:54:54;;;;;;;0.50;0.50;;;32.00;97.20;;;;;;4964209;28;20435;-63
2022/07/13 07:57:27;;;;;;;0.40;0.40;;;32.30;96.50;;;;;;4952742;28;20434;-60
2022/07/13 07:59:54;;;;;;;0.40;0.40;;;32.10;94.60;;;;;;4953645;28;20447;-62
2022/07/13 08:02:20;;;;;;;0.38;0.38;;;32.20;95.20;;;;;;4954288;28;20956;-62
2022/07/13 08:04:49;;;;;;;0.32;0.32;;;32.80;95.10;;;;;;4954236;28;21164;-62
2022/07/13 08:07:16;;;;;;;0.38;0.38;;;33.70;94.60;;;;;;4952912;28;20438;-62
2022/07/13 08:09:43;;;;;;;0.40;0.40;;;34.20;93.90;;;;;;4962821;28;21007;-62
2022/07/13 08:12:13;;;;;;;0.30;0.30;;;34.00;92.90;;;;;;4955589;28;20436;-61
2022/07/13 08:14:40;;;;;;;0.33;0.33;;;32.70;91.60;;;;;;4963024;28;20511;-62
2022/07/13 08:17:06;;;;;;;0.70;0.50;;;31.40;93.30;;;;;;4959486;28;20432;-61
2022/07/13 08:19:33;;;;;;;0.30;0.30;;;31.30;94.60;;;;;;4958856;28;20529;-60
2022/07/13 08:22:08;;;;;;;0.30;0.30;;;31.00;93.90;;;;;;4958135;28;20438;-61
2022/07/13 08:24:35;;;;;;;0.38;0.38;;;30.00;94.30;;;;;;4957696;28;20460;-61
2022/07/13 08:27:04;;;;;;;0.40;0.40;;;29.70;94.90;;;;;;4954313;28;20438;-62
2022/07/13 08:29:31;;;;;;;0.30;0.30;;;29.60;95.20;;;;;;4958001;28;20440;-62
2022/07/13 08:31:57;;;;;;;0.40;0.40;;;29.60;96.20;;;;;;4954909;28;20449;-61
2022/07/13 08:39:55;;;;;;;0.40;0.40;;;29.90;95.10;;;;;;4961111;28;20429;-61
2022/07/13 08:42:21;;;;;;;0.20;0.20;;;29.40;95.30;;;;;;4962727;28;20446;-62
2022/07/13 08:44:51;;;;;;;0.40;0.40;;;29.50;95.80;;;;;;4964179;28;20473;-62
2022/07/13 08:47:18;;;;;;;0.28;0.28;;;29.30;95.20;;;;;;4954454;28;20444;-62
2022/07/13 08:49:46;;;;;;;0.30;0.30;;;29.60;95.40;;;;;;4957382;28;20432;-62
2022/07/13 08:52:13;;;;;;;0.30;0.30;;;29.70;95.30;;;;;;4965665;28;20432;-61
2022/07/13 08:54:40;;;;;;;0.40;0.40;;;29.60;94.20;;;;;;4964049;28;20489;-62
2022/07/13 08:57:08;;;;;;;0.30;0.30;;;29.70;94.90;;;;;;4954362;28;20511;-62
2022/07/13 08:59:34;;;;;;;0.30;0.30;;;29.60;94.60;;;;;;4955578;28;20440;-61
2022/07/13 09:02:01;;;;;;;0.38;0.38;;;30.10;94.40;;;;;;4960894;28;20483;-62
2022/07/13 09:04:29;;;;;;;0.30;0.30;;;30.40;93.80;;;;;;4959412;28;20521;-61
2022/07/13 09:06:56;;;;;;;0.38;0.38;;;29.70;94.50;;;;;;4957008;28;20464;-62
2022/07/13 09:09:35;;;;;;;0.20;0.20;;;30.20;94.40;;;;;;4955702;28;20445;-62
2022/07/13 09:12:27;;;;;;;0.30;0.30;;;30.30;94.10;;;;;;4952982;28;20778;-62
2022/07/13 09:14:59;;;;;;;0.28;0.28;;;30.80;94.40;;;;;;4958865;28;20451;-62
2022/07/13 09:17:29;;;;;;;0.40;0.30;;;31.40;94.10;;;;;;4963265;28;20442;-62
2022/07/13 09:19:57;;;;;;;0.40;0.40;;;31.50;93.00;;;;;;4965483;28;20428;-62
2022/07/13 09:22:26;;;;;;;0.40;0.40;;;31.70;92.70;;;;;;4965224;28;21079;-61
2022/07/13 09:24:53;;;;;;;0.30;0.30;;;31.40;92.20;;;;;;4957085;28;20448;-62
2022/07/13 09:27:21;;;;;;;0.60;0.50;;;31.90;93.10;;;;;;4959066;28;20523;-62
2022/07/13 09:29:49;;;;;;;0.30;0.30;;;32.30;92.70;;;;;;4961858;28;20436;-62
2022/07/13 09:32:15;;;;;;;0.30;0.30;;;32.60;92.50;;;;;;4956127;28;20446;-62
2022/07/13 09:34:57;;;;;;;0.30;0.30;;;32.90;91.90;;;;;;4965485;28;20540;-62
2022/07/13 09:37:27;;;;;;;0.20;0.20;;;32.70;91.70;;;;;;4962914;28;20428;-62
2022/07/13 09:40:07;;;;;;;0.30;0.30;;;32.60;91.80;;;;;;4965918;28;20558;-62
2022/07/13 09:42:39;;;;;;;0.40;0.40;;;33.10;92.00;;;;;;4965766;28;20525;-62
2022/07/13 09:47:57;;;;;;;0.30;0.30;;;33.10;91.20;;;;;;4965261;28;20463;-61
2022/07/13 09:50:37;;;;;;;0.30;0.30;;;32.50;90.50;;;;;;4955819;28;20456;-61
2022/07/13 09:53:43;;;;;;;0.30;0.30;;;32.00;90.50;;;;;;4956065;28;20443;-61
2022/07/13 09:56:10;;;;;;;0.20;0.20;;;31.70;91.30;;;;;;4966800;28;20524;-62
2022/07/13 09:58:37;;;;;;;0.20;0.20;;;31.60;91.10;;;;;;4985273;28;20445;-62
2022/07/13 10:01:04;;;;;;;0.20;0.20;;;31.70;91.00;;;;;;4976671;28;20904;-62
2022/07/13 10:03:31;;;;;;;0.30;0.30;;;32.00;91.00;;;;;;4985803;28;20489;-62
2022/07/13 10:06:01;;;;;;;0.20;0.20;;;32.40;91.30;;;;;;4985157;28;20573;-61
2022/07/13 10:08:28;;;;;;;0.30;0.30;;;32.10;90.20;;;;;;4984974;28;20512;-61
2022/07/13 10:10:55;;;;;;;0.30;0.30;;;31.50;90.40;;;;;;4983406;28;20877;-60
2022/07/13 10:13:23;;;;;;;0.30;0.30;;;31.40;90.60;;;;;;4973831;28;20946;-61
2022/07/13 10:15:50;;;;;;;0.30;0.30;;;31.70;91.00;;;;;;4990147;28;20445;-61
2022/07/13 10:18:21;;;;;;;0.20;0.20;;;31.60;90.70;;;;;;4989123;28;20432;-60
2022/07/13 10:21:23;;;;;;;0.33;0.33;;;31.90;90.00;;;;;;4992390;28;20494;-61
2022/07/13 10:23:50;;;;;;;0.20;0.20;;;31.80;90.10;;;;;;4980586;28;20454;-62
2022/07/13 10:26:31;;;;;;;0.30;0.30;;;31.90;90.80;;;;;;4975548;28;20433;-60
2022/07/13 10:29:05;;;;;;;0.30;0.30;;;32.30;90.40;;;;;;4946843;28;20450;-61
2022/07/13 10:31:33;;;;;;;0.30;0.30;;;32.30;89.50;;;;;;4951428;28;20535;-61
2022/07/13 10:34:01;;;;;;;0.38;0.30;;;31.90;87.20;;;;;;4965083;28;20440;-60
2022/07/13 10:36:57;;;;;;;0.20;0.20;;;31.60;88.20;;;;;;4964677;28;20496;-61
2022/07/13 10:39:26;;;;;;;0.20;0.20;;;32.00;89.70;;;;;;4955967;28;20444;-62
2022/07/13 10:42:19;;;;;;;0.20;0.20;;;31.70;87.00;;;;;;4965761;28;20432;-61
2022/07/13 10:44:46;;;;;;;0.30;0.30;;;31.80;88.20;;;;;;4968593;28;20450;-61
2022/07/13 10:47:14;;;;;;;0.30;0.30;;;31.90;87.60;;;;;;4968096;28;20442;-60
2022/07/13 10:49:53;;;;;;;0.30;0.30;;;31.60;86.90;;;;;;4966468;28;20515;-61
2022/07/13 10:52:26;;;;;;;0.37;0.37;;;31.50;89.90;;;;;;4958349;28;20446;-60
2022/07/13 10:55:11;;;;;;;0.20;0.20;;;31.90;89.20;;;;;;4954871;28;20891;-61
2022/07/13 10:57:48;;;;;;;0.30;0.30;;;32.20;89.70;;;;;;4951230;28;20444;-62
2022/07/13 11:00:18;;;;;;;0.20;0.20;;;32.60;89.80;;;;;;4960512;28;20549;-61
2022/07/13 11:02:48;;;;;;;0.30;0.30;;;32.70;87.80;;;;;;4967255;28;21129;-61
2022/07/13 11:05:30;;;;;;;0.30;0.30;;;33.70;89.20;;;;;;4960732;28;20470;-61
2022/07/13 11:07:57;;;;;;;0.30;0.30;;;35.10;87.80;;;;;;4971759;28;20436;-60
2022/07/13 11:10:26;;;;;;;0.40;0.40;;;35.50;86.70;;;;;;4981684;28;20427;-60
2022/07/13 11:13:00;;;;;;;0.35;0.35;;;35.70;86.50;;;;;;4965846;28;20439;-61
2022/07/13 11:15:42;;;;;;;0.40;0.40;;;35.20;85.90;;;;;;4986026;28;20964;-61
2022/07/13 11:18:21;;;;;;;0.43;0.35;;;34.70;85.90;;;;;;4976633;28;20964;-60
2022/07/13 11:21:14;;;;;;;0.37;0.37;;;34.60;85.20;;;;;;4971849;28;20472;-61
2022/07/13 11:26:44;;;;;;;0.27;0.27;;;34.20;85.50;;;;;;4973012;28;20552;-60
2022/07/13 11:29:48;;;;;;;0.30;0.30;;;33.90;84.60;;;;;;4966345;28;20906;-61
2022/07/13 11:32:25;;;;;;;0.40;0.40;;;34.10;84.80;;;;;;4965756;28;20440;-61
2022/07/13 11:34:52;;;;;;;0.30;0.30;;;34.00;84.90;;;;;;4962610;28;20454;-60
2022/07/13 11:37:22;;;;;;;0.30;0.30;;;34.10;85.30;;;;;;4966638;28;20904;-59
2022/07/13 11:39:49;;;;;;;0.30;0.30;;;33.70;84.70;;;;;;4964355;28;20543;-61
2022/07/13 11:42:23;;;;;;;0.30;0.30;;;33.50;85.60;;;;;;4958582;28;21186;-62
2022/07/13 11:44:53;;;;;;;0.37;0.37;;;33.50;86.30;;;;;;4968521;28;20865;-60
2022/07/13 11:47:20;;;;;;;0.30;0.30;;;33.20;86.60;;;;;;4949186;28;20446;-61
2022/07/13 11:49:52;;;;;;;0.30;0.30;;;33.10;83.80;;;;;;4963151;28;20449;-60
2022/07/13 11:52:23;;;;;;;0.40;0.40;;;33.10;83.80;;;;;;4950143;28;20450;-60
2022/07/13 11:55:04;;;;;;;0.40;0.40;;;33.20;85.00;;;;;;4952716;28;20666;-61
2022/07/13 11:57:33;;;;;;;0.20;0.20;;;33.70;84.50;;;;;;4953076;28;20437;-61
2022/07/13 12:00:08;;;;;;;0.30;0.30;;;33.90;83.30;;;;;;4947060;28;20444;-61
2022/07/13 12:02:37;;;;;;;0.30;0.30;;;34.10;83.90;;;;;;4975001;28;20492;-62
2022/07/13 12:05:05;;;;;;;0.40;0.40;;;34.00;83.60;;;;;;4968849;28;20428;-61
2022/07/13 12:07:32;;;;;;;0.60;0.40;;;34.30;81.50;;;;;;4960450;28;20444;-60
2022/07/13 12:10:01;;;;;;;0.20;0.20;;;33.80;81.90;;;;;;4963431;28;20536;-60
2022/07/13 12:12:37;;;;;;;0.40;0.40;;;33.50;82.60;;;;;;4966673;28;20459;-62
2022/07/13 12:15:06;;;;;;;0.37;0.37;;;33.00;82.70;;;;;;4949521;28;21148;-62
2022/07/13 12:17:48;;;;;;;0.30;0.30;;;32.50;84.50;;;;;;4956651;28;20433;-62
2022/07/13 12:20:21;;;;;;;0.40;0.40;;;32.50;84.80;;;;;;4960534;28;20436;-60
2022/07/13 12:22:56;;;;;;;0.30;0.30;;;32.30;83.90;;;;;;4960372;28;20919;-62
2022/07/13 12:25:39;;;;;;;0.30;0.30;;;32.40;83.10;;;;;;4964896;28;20444;-61
2022/07/13 12:28:10;;;;;;;0.30;0.30;;;33.20;83.10;;;;;;4964322;28;20518;-61
2022/07/13 12:30:59;;;;;;;0.30;0.30;;;33.80;80.90;;;;;;4985350;28;20873;-61
2022/07/13 12:33:42;;;;;;;0.27;0.27;;;33.80;80.90;;;;;;4954009;28;20519;-61
2022/07/13 12:36:11;;;;;;;0.30;0.30;;;33.90;81.90;;;;;;4948636;28;21283;-62
2022/07/13 12:38:58;;;;;;;0.50;0.50;;;34.40;79.90;;;;;;4961075;28;20442;-61
2022/07/13 12:41:30;;;;;;;0.30;0.30;;;34.20;81.20;;;;;;4954929;28;20466;-61
2022/07/13 12:43:59;;;;;;;0.40;0.40;;;33.70;81.20;;;;;;4954917;28;20438;-61
2022/07/13 12:46:42;;;;;;;0.30;0.30;;;33.40;80.30;;;;;;4951825;28;21540;-60
2022/07/13 12:49:10;;;;;;;0.30;0.30;;;33.10;81.50;;;;;;4956790;28;20487;-61
2022/07/13 12:51:44;;;;;;;0.30;0.30;;;32.50;80.50;;;;;;4956114;28;21214;-61
2022/07/13 12:54:12;;;;;;;0.25;0.25;;;32.90;82.30;;;;;;4951248;28;20623;-59
2022/07/13 12:56:51;;;;;;;0.20;0.20;;;33.30;80.50;;;;;;4953527;28;20674;-60
2022/07/13 12:59:21;;;;;;;0.30;0.30;;;33.80;79.60;;;;;;4954295;28;20435;-59
2022/07/13 13:01:49;;;;;;;0.30;0.30;;;34.00;79.00;;;;;;4958893;28;20533;-61
2022/07/13 13:04:17;;;;;;;0.20;0.20;;;34.30;79.00;;;;;;4959831;28;20440;-61
2022/07/13 13:06:47;;;;;;;0.30;0.30;;;34.70;78.10;;;;;;4950895;28;20526;-60
2022/07/13 13:09:17;;;;;;;0.30;0.30;;;34.80;78.00;;;;;;4955721;28;20526;-60
2022/07/13 13:11:46;;;;;;;0.40;0.40;;;34.90;78.60;;;;;;4959308;28;20497;-60